Terminal Aerodrome Forecast
Issued by NWS Wakefield, VA

Home | Current Version | Previous Version | Text Only | Print | Product List | Glossary On
Versions: 1 2 3 4 5 6 7 8 9 10 11 12 13 14 15 16
000
FTUS41 KAKQ 230612 RRA
TAFSBY
TAF
KSBY 230612Z 2306/2406 20005KT P6SM BKN200
     FM231000 22005KT P6SM -RA BKN100 OVC150
     FM231400 21009KT 6SM -RA BKN025 OVC060
     FM231600 22015G24KT 4SM -RA BKN020 OVC050
     FM240000 21010KT P6SM BKN150=

USA.gov is the U.S. government's official web portal to all federal, state and local government web resources and services.